Time;durP1;ratioP1;P1;durP2;ratioP2;P2;SDS_P1;SDS_P2;PMS_P1;PMS_P2;Temp;Humidity;BMP_temperature;BMP_pressure;BME280_temperature;BME280_humidity;BME280_pressure;Samples;Min_cycle;Max_cycle;Signal;HPM_P1;HPM_P2
2021/08/05 00:02:29;;;;;;;5.43;4.40;;;;;;;17.92;71.42;101224.56;5970031;29;20259;-59
2021/08/05 00:05:50;;;;;;;4.38;3.97;;;;;;;17.97;71.45;101227.06;5975897;29;20245;-59
2021/08/05 00:09:11;;;;;;;5.82;4.25;;;;;;;18.11;70.70;101219.56;5968898;29;20381;-59
2021/08/05 00:12:33;;;;;;;5.47;4.97;;;;;;;17.90;71.69;101221.13;5981219;29;20235;-60
2021/08/05 00:15:54;;;;;;;5.70;4.07;;;;;;;18.02;71.75;101219.84;5975917;29;20243;-59
2021/08/05 00:19:16;;;;;;;5.43;4.53;;;;;;;17.94;71.57;101224.53;5984786;29;20244;-59
2021/08/05 00:22:37;;;;;;;5.32;4.82;;;;;;;18.05;71.59;101214.50;5980662;29;20322;-59
2021/08/05 00:25:57;;;;;;;5.50;4.38;;;;;;;18.21;70.86;101213.03;5977984;29;20240;-59
2021/08/05 00:29:20;;;;;;;4.90;4.47;;;;;;;18.05;71.70;101206.59;5980682;29;20243;-58
2021/08/05 00:32:41;;;;;;;5.32;3.70;;;;;;;18.07;71.64;101212.66;5976270;29;20229;-59
2021/08/05 00:36:02;;;;;;;4.75;4.05;;;;;;;18.10;71.65;101209.91;5971620;29;20236;-59
2021/08/05 00:39:24;;;;;;;4.70;4.05;;;;;;;18.19;70.69;101206.97;5983317;29;20240;-59
2021/08/05 00:42:49;;;;;;;5.70;4.60;;;;;;;18.32;69.84;101202.13;5975272;29;20243;-60
2021/08/05 00:46:12;;;;;;;5.07;4.57;;;;;;;18.33;69.26;101203.00;5986249;29;20733;-60
2021/08/05 00:49:34;;;;;;;4.68;3.60;;;;;;;18.12;69.67;101202.81;5979809;29;20953;-59
2021/08/05 00:52:55;;;;;;;4.67;3.40;;;;;;;18.04;70.19;101196.94;5977868;29;20251;-58
2021/08/05 00:56:16;;;;;;;6.20;4.63;;;;;;;18.07;70.27;101196.84;5979691;29;20240;-60
2021/08/05 00:59:38;;;;;;;6.07;3.60;;;;;;;18.06;70.18;101187.22;5974129;29;20667;-59
2021/08/05 01:03:07;;;;;;;4.10;3.70;;;;;;;18.08;69.99;101188.03;5983587;29;20264;-59
2021/08/05 01:06:40;;;;;;;10.07;4.30;;;;;;;18.09;70.05;101195.03;5977882;29;20614;-59
2021/08/05 01:10:07;;;;;;;5.72;4.63;;;;;;;18.13;69.53;101187.88;5986617;29;20247;-59
2021/08/05 01:13:34;;;;;;;6.38;4.82;;;;;;;18.04;69.89;101182.00;5978128;29;20999;-60
2021/08/05 01:16:57;;;;;;;6.87;3.80;;;;;;;18.03;69.95;101182.03;5975844;29;20240;-60
2021/08/05 01:20:21;;;;;;;3.20;3.00;;;;;;;18.07;70.39;101186.31;5977058;29;20504;-60
2021/08/05 01:23:47;;;;;;;3.47;3.17;;;;;;;17.92;69.89;101185.06;5974400;29;20252;-59
2021/08/05 01:27:10;;;;;;;3.43;3.10;;;;;;;18.10;69.32;101184.41;5975020;29;20288;-59
2021/08/05 01:30:34;;;;;;;6.40;4.33;;;;;;;18.13;69.19;101180.84;5980137;29;20240;-59
2021/08/05 01:33:56;;;;;;;3.63;3.33;;;;;;;18.10;68.86;101173.88;5979432;29;20243;-60
2021/08/05 01:37:19;;;;;;;4.87;4.47;;;;;;;18.08;68.48;101172.22;5977990;29;20239;-60
2021/08/05 01:40:41;;;;;;;6.83;3.90;;;;;;;17.81;69.86;101180.09;5973474;29;20236;-60
2021/08/05 01:44:06;;;;;;;3.70;3.40;;;;;;;17.83;69.71;101174.78;5985550;29;20326;-60
2021/08/05 01:47:29;;;;;;;5.00;2.87;;;;;;;17.88;69.46;101173.75;5985733;29;20235;-60
2021/08/05 01:50:51;;;;;;;6.37;3.93;;;;;;;17.77;69.07;101167.94;5980906;29;20251;-60
2021/08/05 01:54:12;;;;;;;4.30;3.83;;;;;;;17.85;68.80;101171.22;5978634;29;20642;-60
2021/08/05 01:57:33;;;;;;;5.33;3.33;;;;;;;18.01;68.36;101165.41;5981426;29;20236;-59
2021/08/05 02:00:55;;;;;;;4.60;3.10;;;;;;;18.00;67.58;101163.72;5990766;29;20252;-60
2021/08/05 02:04:39;;;;;;;4.33;3.07;;;;;;;17.97;67.49;101179.63;5984964;29;20239;-60
2021/08/05 02:08:05;;;;;;;4.37;3.80;;;;;;;17.99;67.70;101175.16;5966966;29;20244;-59
2021/08/05 02:11:28;;;;;;;5.23;3.37;;;;;;;17.90;67.73;101169.28;5985695;29;20241;-59
2021/08/05 02:14:54;;;;;;;4.23;3.43;;;;;;;17.92;67.42;101166.63;5979154;29;20232;-59
2021/08/05 02:18:18;;;;;;;4.37;3.57;;;;;;;17.90;67.31;101177.19;5989801;29;20331;-59
2021/08/05 02:21:59;;;;;;;3.67;3.23;;;;;;;17.99;66.43;101168.13;5975739;29;20236;-60
2021/08/05 02:25:20;;;;;;;3.63;3.33;;;;;;;18.02;66.77;101167.16;5969169;29;20263;-59
2021/08/05 02:28:42;;;;;;;2.85;2.63;;;;;;;17.96;66.98;101162.97;5983146;29;20244;-60
2021/08/05 02:32:03;;;;;;;3.90;3.45;;;;;;;17.98;67.12;101166.41;5985432;29;20614;-60
2021/08/05 02:35:28;;;;;;;2.50;2.20;;;;;;;17.80;66.82;101162.59;5983210;29;20563;-59
2021/08/05 02:38:49;;;;;;;5.00;2.37;;;;;;;17.86;66.53;101158.94;5982792;29;20247;-59
2021/08/05 02:42:10;;;;;;;3.55;3.13;;;;;;;17.77;66.95;101162.69;5973949;29;20264;-60
2021/08/05 02:45:33;;;;;;;3.65;3.25;;;;;;;17.77;66.54;101156.56;5988937;29;21003;-59
2021/08/05 02:48:55;;;;;;;4.45;2.33;;;;;;;17.67;66.10;101151.59;5987574;29;20232;-59
2021/08/05 02:52:18;;;;;;;2.58;2.38;;;;;;;17.84;66.36;101148.44;5972238;29;20239;-60
2021/08/05 02:55:39;;;;;;;4.97;3.23;;;;;;;17.91;65.75;101146.44;5984486;29;20240;-60
2021/08/05 02:59:01;;;;;;;3.00;2.67;;;;;;;17.75;66.03;101147.84;5975789;29;20245;-60
2021/08/05 03:02:21;;;;;;;3.23;2.93;;;;;;;17.82;65.41;101144.09;5990643;29;20239;-61
2021/08/05 03:05:45;;;;;;;3.20;3.00;;;;;;;17.95;65.04;101134.03;5978458;29;20248;-60
2021/08/05 03:09:08;;;;;;;4.47;3.60;;;;;;;17.83;65.45;101130.84;5981126;29;20239;-58
2021/08/05 03:12:28;;;;;;;4.23;3.33;;;;;;;17.90;64.73;101127.13;5976447;29;20240;-59
2021/08/05 03:15:49;;;;;;;3.35;3.05;;;;;;;17.93;64.67;101123.53;5982786;29;20243;-59
2021/08/05 03:19:10;;;;;;;5.35;4.65;;;;;;;18.03;64.71;101131.97;5986811;29;20274;-59
2021/08/05 03:22:31;;;;;;;10.82;9.00;;;;;;;18.03;64.87;101121.44;5982132;29;20232;-60
2021/08/05 03:25:53;;;;;;;10.05;9.25;;;;;;;17.88;65.23;101123.69;5981933;29;20650;-59
2021/08/05 03:29:14;;;;;;;7.88;5.22;;;;;;;17.84;65.10;101122.09;5981732;29;20244;-60
2021/08/05 03:32:35;;;;;;;6.18;5.43;;;;;;;17.97;64.37;101114.63;5979790;29;20244;-59
2021/08/05 03:35:56;;;;;;;5.63;3.85;;;;;;;18.15;63.75;101114.88;5977845;29;20236;-60
2021/08/05 03:39:17;;;;;;;4.85;4.07;;;;;;;17.76;65.52;101108.28;5970733;29;20531;-59
2021/08/05 03:42:40;;;;;;;3.63;3.33;;;;;;;17.73;65.58;101107.53;5984915;29;20232;-60
2021/08/05 03:46:01;;;;;;;4.93;3.90;;;;;;;17.96;64.42;101109.41;5976325;29;20236;-60
2021/08/05 03:49:22;;;;;;;4.07;2.80;;;;;;;17.90;64.77;101115.75;5978600;29;20239;-60
2021/08/05 03:52:43;;;;;;;5.27;3.87;;;;;;;17.97;64.63;101121.66;5982686;29;20251;-60
2021/08/05 03:56:04;;;;;;;4.63;3.60;;;;;;;17.69;65.20;101112.03;5978302;29;20678;-61
2021/08/05 03:59:27;;;;;;;5.43;3.53;;;;;;;17.84;64.57;101111.56;5980050;29;20239;-60
2021/08/05 04:02:48;;;;;;;3.97;3.57;;;;;;;17.79;65.05;101108.16;5980238;29;20259;-60
2021/08/05 04:06:10;;;;;;;3.57;3.10;;;;;;;17.66;65.79;101113.03;5976617;29;20244;-60
2021/08/05 04:09:31;;;;;;;3.83;3.03;;;;;;;17.74;65.75;101110.13;5980965;29;20228;-61
2021/08/05 04:12:52;;;;;;;8.77;6.73;;;;;;;17.88;65.19;101112.31;5976777;29;20669;-60
2021/08/05 04:16:14;;;;;;;10.57;9.63;;;;;;;17.79;65.33;101108.16;5976720;29;20362;-59
2021/08/05 04:19:35;;;;;;;13.03;11.83;;;;;;;17.84;64.97;101116.81;5980944;29;20326;-59
2021/08/05 04:22:56;;;;;;;10.30;9.30;;;;;;;17.92;64.69;101113.91;5976332;29;20240;-59
2021/08/05 04:26:17;;;;;;;11.70;10.77;;;;;;;18.06;63.82;101116.06;5974688;29;20812;-60
2021/08/05 04:29:38;;;;;;;11.43;10.53;;;;;;;17.82;65.08;101118.63;5980969;29;20231;-59
2021/08/05 04:33:00;;;;;;;7.00;5.03;;;;;;;18.02;64.30;101117.94;5976994;29;20232;-60
2021/08/05 04:36:20;;;;;;;5.00;4.60;;;;;;;18.06;64.19;101118.69;5983556;29;20236;-61
2021/08/05 04:39:42;;;;;;;7.43;4.53;;;;;;;18.03;64.45;101108.25;5978062;29;20327;-60
2021/08/05 04:43:03;;;;;;;5.50;5.00;;;;;;;18.15;64.46;101114.88;5981675;29;20267;-59
2021/08/05 04:46:24;;;;;;;4.45;4.13;;;;;;;17.95;64.58;101112.94;5976931;29;20232;-59
2021/08/05 04:49:46;;;;;;;4.40;3.80;;;;;;;18.20;63.91;101105.88;5977721;29;20243;-58
2021/08/05 04:53:09;;;;;;;3.83;3.53;;;;;;;17.99;64.34;101114.56;5980034;29;20611;-60
2021/08/05 04:56:30;;;;;;;3.77;3.07;;;;;;;18.01;63.81;101107.44;5977922;29;20229;-60
2021/08/05 04:59:51;;;;;;;5.47;2.47;;;;;;;17.92;63.88;101108.66;5980325;29;20248;-60
2021/08/05 05:03:13;;;;;;;3.53;3.23;;;;;;;18.08;63.57;101107.19;5979102;29;20598;-59
2021/08/05 05:06:35;;;;;;;2.97;2.77;;;;;;;18.13;63.21;101107.03;5973089;29;20686;-60
2021/08/05 05:09:56;;;;;;;2.60;2.40;;;;;;;18.09;63.09;101095.75;5972046;29;20235;-59
2021/08/05 05:13:17;;;;;;;3.20;2.90;;;;;;;18.08;62.85;101104.53;5980755;29;20236;-60
2021/08/05 05:16:38;;;;;;;3.03;2.80;;;;;;;18.27;62.27;101104.75;5979128;29;20314;-60
2021/08/05 05:19:59;;;;;;;5.10;3.17;;;;;;;18.29;61.71;101102.91;5978963;29;20268;-59
2021/08/05 05:23:21;;;;;;;3.60;3.10;;;;;;;18.37;61.53;101093.88;5980866;29;20259;-60
2021/08/05 05:26:42;;;;;;;4.87;2.33;;;;;;;18.38;61.41;101088.53;5984830;29;20331;-60
2021/08/05 05:30:03;;;;;;;3.20;2.90;;;;;;;18.55;61.16;101094.94;5991530;29;20235;-60
2021/08/05 05:33:25;;;;;;;4.80;3.40;;;;;;;18.46;61.07;101098.81;5974402;29;20239;-60
2021/08/05 05:36:46;;;;;;;4.57;3.17;;;;;;;18.38;61.02;101098.22;5980094;29;20236;-60
2021/08/05 05:40:10;;;;;;;3.63;2.70;;;;;;;18.35;60.97;101104.47;5976111;29;20260;-61
2021/08/05 05:43:30;;;;;;;2.70;2.50;;;;;;;18.01;61.40;101102.19;5973313;29;20235;-59
2021/08/05 05:46:51;;;;;;;7.07;6.40;;;;;;;18.28;61.09;101098.56;5983178;29;20240;-60
2021/08/05 05:50:15;;;;;;;4.40;3.87;;;;;;;18.62;60.02;101089.38;5973620;29;20239;-59
2021/08/05 05:53:35;;;;;;;4.70;4.30;;;;;;;18.54;60.35;101088.81;5982925;29;20231;-60
2021/08/05 05:56:58;;;;;;;4.55;4.15;;;;;;;18.75;59.74;101086.28;5973865;29;20244;-60
2021/08/05 06:00:19;;;;;;;7.70;6.77;;;;;;;18.86;59.52;101087.63;5979466;29;20240;-61
2021/08/05 06:03:40;;;;;;;4.97;4.57;;;;;;;18.73;60.12;101096.00;5980834;29;20240;-60
2021/08/05 06:07:01;;;;;;;4.10;3.50;;;;;;;18.62;59.64;101094.66;5970181;29;20243;-60
2021/08/05 06:10:23;;;;;;;6.73;2.97;;;;;;;18.74;59.48;101093.31;5979637;29;20499;-60
2021/08/05 06:13:45;;;;;;;3.50;3.00;;;;;;;18.93;59.93;101092.66;5974882;29;20247;-60
2021/08/05 06:17:06;;;;;;;4.33;2.70;;;;;;;18.85;60.31;101096.44;5978734;29;20792;-60
2021/08/05 06:20:27;;;;;;;3.75;2.50;;;;;;;19.04;59.02;101090.44;5978673;29;20252;-61
2021/08/05 06:23:47;;;;;;;5.70;3.33;;;;;;;19.18;58.75;101092.53;5976166;29;20239;-59
2021/08/05 06:27:10;;;;;;;3.00;2.63;;;;;;;19.01;59.01;101086.13;5982007;29;20236;-60
2021/08/05 06:30:33;;;;;;;3.72;2.88;;;;;;;19.10;58.12;101094.63;5979549;29;20635;-59
2021/08/05 06:33:54;;;;;;;2.83;2.55;;;;;;;19.03;57.97;101092.22;5979864;29;20255;-58
2021/08/05 06:37:15;;;;;;;5.00;2.80;;;;;;;19.14;57.58;101099.72;5984165;29;20789;-60
2021/08/05 06:40:36;;;;;;;2.90;2.63;;;;;;;18.98;57.93;101093.31;5988220;29;20232;-60
2021/08/05 06:43:57;;;;;;;3.22;3.00;;;;;;;19.34;57.28;101095.41;5982617;29;20235;-60
2021/08/05 06:47:19;;;;;;;3.67;2.38;;;;;;;19.48;57.09;101103.59;5981948;29;20236;-59
2021/08/05 06:50:40;;;;;;;6.22;2.95;;;;;;;19.28;57.03;101101.78;5983175;29;20232;-60
2021/08/05 06:54:01;;;;;;;2.47;2.33;;;;;;;19.31;56.59;101100.78;5976026;29;20236;-60
2021/08/05 06:57:22;;;;;;;6.38;3.33;;;;;;;19.15;56.74;101092.63;5984382;29;20244;-59
2021/08/05 07:00:43;;;;;;;3.47;2.38;;;;;;;18.84;57.88;101105.28;5965837;29;21048;-60
2021/08/05 07:04:05;;;;;;;2.70;2.50;;;;;;;19.13;56.91;101094.47;5976116;29;20239;-60
2021/08/05 07:07:26;;;;;;;3.43;2.70;;;;;;;19.50;56.79;101096.47;5979242;29;20335;-60
2021/08/05 07:10:47;;;;;;;3.13;2.58;;;;;;;19.65;56.13;101087.03;5981423;29;20243;-60
2021/08/05 07:14:09;;;;;;;5.63;5.13;;;;;;;19.77;55.85;101091.81;5980289;29;20327;-62
2021/08/05 07:17:29;;;;;;;3.80;3.35;;;;;;;19.62;56.32;101092.47;5984747;29;20232;-60
2021/08/05 07:20:53;;;;;;;8.68;5.30;;;;;;;19.78;56.15;101090.91;5981710;29;20664;-59
2021/08/05 07:24:14;;;;;;;4.18;3.75;;;;;;;19.80;55.77;101085.56;5991173;29;20355;-60
2021/08/05 07:27:35;;;;;;;6.00;5.32;;;;;;;19.94;55.04;101087.59;5982268;29;20239;-60
2021/08/05 07:30:57;;;;;;;4.60;4.18;;;;;;;20.02;55.44;101096.91;5979943;29;20582;-59
2021/08/05 07:34:18;;;;;;;6.07;4.22;;;;;;;20.56;54.16;101099.75;5981973;29;20239;-60
2021/08/05 07:37:40;;;;;;;5.80;5.07;;;;;;;20.85;53.72;101097.56;5987021;29;20338;-60
2021/08/05 07:41:01;;;;;;;4.40;3.53;;;;;;;21.48;52.16;101096.31;5974886;29;20240;-60
2021/08/05 07:44:22;;;;;;;3.75;3.13;;;;;;;21.22;52.20;101090.50;5985417;29;20350;-60
2021/08/05 07:47:43;;;;;;;4.45;3.35;;;;;;;21.10;52.60;101091.97;5986134;29;20235;-59
2021/08/05 07:51:04;;;;;;;2.78;2.47;;;;;;;20.39;53.93;101095.25;5975322;29;20239;-59
2021/08/05 07:54:26;;;;;;;3.58;2.65;;;;;;;20.08;55.05;101095.75;5982728;29;20244;-60
2021/08/05 07:57:47;;;;;;;4.32;3.92;;;;;;;20.91;53.16;101096.44;5982112;29;20331;-59
2021/08/05 08:01:08;;;;;;;6.88;4.35;;;;;;;20.89;53.05;101096.50;5976039;29;20244;-60
2021/08/05 08:04:29;;;;;;;4.43;4.13;;;;;;;21.37;53.01;101089.72;5978988;29;20255;-58
2021/08/05 08:07:50;;;;;;;3.90;2.80;;;;;;;21.54;51.94;101080.09;5980876;29;20327;-60
2021/08/05 08:11:12;;;;;;;5.13;3.10;;;;;;;21.08;52.51;101080.59;5975406;29;20276;-59
2021/08/05 08:14:33;;;;;;;6.03;4.70;;;;;;;21.80;51.33;101087.56;5978923;29;20232;-59
2021/08/05 08:17:55;;;;;;;3.38;3.08;;;;;;;22.21;51.10;101087.19;5981400;29;20236;-59
2021/08/05 08:21:16;;;;;;;2.80;2.58;;;;;;;21.97;50.98;101078.75;5977670;29;20247;-60
2021/08/05 08:24:37;;;;;;;4.57;4.10;;;;;;;21.96;50.96;101076.16;5981925;29;20232;-61
2021/08/05 08:27:59;;;;;;;3.17;2.88;;;;;;;20.91;52.88;101069.97;5973875;29;20231;-60
2021/08/05 08:31:20;;;;;;;3.45;3.03;;;;;;;21.06;53.04;101078.97;5980869;29;20247;-61
2021/08/05 08:34:41;;;;;;;3.92;3.20;;;;;;;21.48;52.15;101070.69;5981570;29;20263;-60
2021/08/05 08:38:03;;;;;;;5.65;3.95;;;;;;;21.74;51.77;101072.00;5969938;29;20249;-60
2021/08/05 08:41:24;;;;;;;4.60;3.28;;;;;;;21.29;52.90;101070.72;5981102;29;20650;-61
2021/08/05 08:44:47;;;;;;;3.70;2.83;;;;;;;21.85;51.70;101057.31;5980212;29;20239;-60
2021/08/05 08:48:11;;;;;;;3.95;3.65;;;;;;;22.21;50.68;101059.81;5980838;29;20244;-59
2021/08/05 08:51:33;;;;;;;3.85;3.53;;;;;;;22.71;50.18;101065.97;5977534;29;20235;-59
2021/08/05 08:54:55;;;;;;;2.53;2.33;;;;;;;22.72;49.98;101062.34;5989329;29;20251;-60
2021/08/05 08:58:18;;;;;;;6.07;2.83;;;;;;;23.21;49.05;101053.44;5974605;29;20326;-60
2021/08/05 09:01:41;;;;;;;3.20;2.85;;;;;;;23.02;49.53;101054.47;5980647;29;20271;-60
2021/08/05 09:05:05;;;;;;;4.10;3.20;;;;;;;23.61;48.58;101054.56;5983434;29;20278;-59
2021/08/05 09:08:26;;;;;;;4.65;3.45;;;;;;;23.89;48.20;101052.94;5980889;29;20236;-62
2021/08/05 09:11:47;;;;;;;7.53;4.00;;;;;;;24.31;46.92;101046.75;5976034;29;20635;-60
2021/08/05 09:15:09;;;;;;;3.67;3.03;;;;;;;24.32;47.31;101042.28;5973970;29;20239;-60
2021/08/05 09:18:35;;;;;;;2.80;2.22;;;;;;;24.35;46.69;101044.75;5979638;29;20275;-60
2021/08/05 09:22:00;;;;;;;3.33;2.55;;;;;;;24.81;46.10;101035.63;5973424;29;20248;-60
2021/08/05 09:25:27;;;;;;;3.30;3.00;;;;;;;24.74;45.58;101030.72;5976800;29;20228;-60
2021/08/05 09:29:00;;;;;;;3.30;2.95;;;;;;;24.11;46.94;101034.69;5978925;29;20243;-59
2021/08/05 09:32:27;;;;;;;4.43;3.03;;;;;;;24.22;46.83;101036.69;5980196;29;20232;-59
2021/08/05 09:35:51;;;;;;;3.28;2.97;;;;;;;23.39;45.91;101044.38;5979911;29;20235;-60
2021/08/05 09:39:17;;;;;;;5.68;2.97;;;;;;;23.87;45.55;101037.06;5973245;29;20248;-59
2021/08/05 09:42:38;;;;;;;3.53;2.80;;;;;;;23.31;45.64;101030.69;5982034;29;20227;-60
2021/08/05 09:45:59;;;;;;;3.15;2.83;;;;;;;22.34;47.90;101029.06;5988091;29;20321;-60
2021/08/05 09:49:20;;;;;;;3.10;2.75;;;;;;;23.53;45.60;101015.16;5975998;29;20244;-59
2021/08/05 09:52:43;;;;;;;5.07;2.53;;;;;;;23.83;45.33;101016.09;5980786;29;20232;-60
2021/08/05 09:56:12;;;;;;;2.47;2.28;;;;;;;23.05;45.73;101016.28;5981216;29;20248;-59
2021/08/05 09:59:33;;;;;;;4.47;2.97;;;;;;;23.43;45.72;101010.50;5983690;29;20224;-60
2021/08/05 10:02:54;;;;;;;2.45;2.17;;;;;;;23.81;44.71;100994.03;5982926;29;20565;-60
2021/08/05 10:06:15;;;;;;;2.78;2.30;;;;;;;22.99;44.86;100989.13;5978939;29;20244;-60
2021/08/05 10:09:38;;;;;;;3.00;2.78;;;;;;;23.92;44.07;100983.59;5978313;29;20522;-59
2021/08/05 10:13:00;;;;;;;4.43;2.50;;;;;;;23.11;44.15;100986.69;5983051;29;20353;-60
2021/08/05 10:16:39;;;;;;;4.82;2.97;;;;;;;23.49;44.39;100991.53;5980094;29;20326;-60
2021/08/05 10:20:02;;;;;;;4.28;2.35;;;;;;;23.71;43.82;100986.63;5977089;29;20322;-60
2021/08/05 10:23:23;;;;;;;3.05;2.85;;;;;;;23.69;44.87;100982.31;5975241;29;20670;-60
2021/08/05 10:26:46;;;;;;;4.00;2.67;;;;;;;24.13;43.39;100971.59;5982473;29;20540;-61
2021/08/05 10:30:10;;;;;;;2.90;2.40;;;;;;;24.93;41.97;100955.78;5986274;29;20235;-60
2021/08/05 10:33:32;;;;;;;4.43;2.22;;;;;;;25.13;41.97;100961.56;5982336;29;20638;-60
2021/08/05 10:36:53;;;;;;;2.88;2.60;;;;;;;25.69;41.04;100946.16;5983794;29;20239;-61
2021/08/05 10:40:15;;;;;;;3.47;2.88;;;;;;;24.65;42.23;100958.56;5979093;29;20278;-60
2021/08/05 10:43:38;;;;;;;2.95;2.30;;;;;;;24.90;42.12;100950.66;5981032;29;20355;-60
2021/08/05 10:47:00;;;;;;;3.47;2.58;;;;;;;25.09;40.99;100950.25;5983397;29;20236;-59
2021/08/05 10:50:23;;;;;;;2.88;2.50;;;;;;;24.07;43.57;100957.84;5979017;29;20243;-60
2021/08/05 10:53:45;;;;;;;3.42;3.13;;;;;;;24.89;41.71;100942.75;5984036;29;20228;-59
2021/08/05 10:57:15;;;;;;;4.28;2.92;;;;;;;25.38;41.73;100931.44;5978953;29;20235;-60
2021/08/05 11:00:58;;;;;;;3.28;2.97;;;;;;;25.21;40.76;100932.59;5981998;29;20239;-60
2021/08/05 11:04:46;;;;;;;3.38;3.08;;;;;;;26.26;39.75;100920.72;5985467;29;20247;-60
2021/08/05 11:08:25;;;;;;;5.38;4.85;;;;;;;26.61;39.09;100922.63;5947043;29;20235;-60
2021/08/05 11:11:46;;;;;;;5.15;4.75;;;;;;;27.07;38.15;100920.97;5982842;29;20322;-59
2021/08/05 11:15:48;;;;;;;2.05;1.95;;;;;;;26.98;38.09;100922.50;5980377;29;20267;-60
2021/08/05 11:19:25;;;;;;;4.63;2.20;;;;;;;27.69;37.25;100917.88;5969220;29;20516;-60
2021/08/05 11:22:46;;;;;;;3.00;2.80;;;;;;;27.32;37.24;100924.41;5984472;29;20527;-60
2021/08/05 11:26:09;;;;;;;4.18;2.40;;;;;;;27.71;36.25;100903.53;5975905;29;20682;-60
2021/08/05 11:29:30;;;;;;;2.70;2.50;;;;;;;27.54;35.84;100897.69;5980258;29;20236;-59
2021/08/05 11:32:50;;;;;;;3.90;3.03;;;;;;;28.45;34.90;100898.41;5974324;29;20239;-60
2021/08/05 11:36:21;;;;;;;2.92;2.63;;;;;;;26.16;36.87;100892.19;5976477;29;20522;-60
2021/08/05 11:39:55;;;;;;;3.90;3.55;;;;;;;26.77;36.99;100892.94;5979611;29;20260;-60
2021/08/05 11:43:22;;;;;;;2.80;2.50;;;;;;;26.95;37.07;100897.84;5980832;29;20247;-59
2021/08/05 11:46:47;;;;;;;4.18;3.63;;;;;;;26.60;37.40;100886.22;5980325;29;20243;-59
2021/08/05 11:50:19;;;;;;;4.30;3.97;;;;;;;26.80;37.06;100881.19;5971047;29;20249;-60
2021/08/05 11:53:44;;;;;;;2.80;2.60;;;;;;;26.77;37.38;100876.91;5981029;29;20243;-60
2021/08/05 11:57:06;;;;;;;2.83;2.63;;;;;;;25.48;39.11;100887.19;5980887;29;20760;-59
2021/08/05 12:00:29;;;;;;;3.08;2.78;;;;;;;25.62;39.38;100878.22;5978582;29;20236;-59
2021/08/05 12:03:50;;;;;;;5.00;3.42;;;;;;;25.92;38.55;100875.19;5981761;29;20693;-59
2021/08/05 12:07:27;;;;;;;2.83;2.63;;;;;;;25.77;39.06;100868.25;5984714;29;20563;-60
2021/08/05 12:10:50;;;;;;;2.25;2.05;;;;;;;25.81;38.79;100864.41;5972519;29;20240;-59
2021/08/05 12:14:14;;;;;;;2.28;2.08;;;;;;;25.11;40.04;100867.56;5983157;29;20235;-60
2021/08/05 12:17:40;;;;;;;3.47;3.17;;;;;;;25.37;40.32;100872.91;5976528;29;20255;-59
2021/08/05 12:21:04;;;;;;;5.13;3.35;;;;;;;25.16;40.29;100865.41;5972278;29;20236;-60
2021/08/05 12:24:26;;;;;;;4.15;3.75;;;;;;;25.41;40.27;100867.25;5980652;29;20243;-58
2021/08/05 12:27:55;;;;;;;4.45;4.05;;;;;;;24.81;41.07;100867.84;5982277;29;20235;-59
2021/08/05 12:31:18;;;;;;;3.92;3.50;;;;;;;24.29;42.30;100861.53;5985563;29;20238;-59
2021/08/05 12:34:47;;;;;;;3.13;2.83;;;;;;;24.01;42.50;100868.66;5975780;29;20248;-59
2021/08/05 12:38:11;;;;;;;2.47;2.30;;;;;;;24.18;42.59;100859.59;5978858;29;20238;-60
2021/08/05 12:41:35;;;;;;;3.67;2.97;;;;;;;24.26;41.69;100859.91;5976298;29;20603;-60
2021/08/05 12:44:59;;;;;;;3.33;3.03;;;;;;;24.55;42.09;100852.69;5979184;29;20678;-60
2021/08/05 12:48:23;;;;;;;3.40;3.00;;;;;;;24.45;41.91;100854.25;5974934;29;20259;-59
2021/08/05 12:51:44;;;;;;;4.20;3.72;;;;;;;24.17;42.59;100850.75;5982981;29;20231;-59
2021/08/05 12:55:07;;;;;;;3.70;3.10;;;;;;;23.62;45.10;100862.25;5984182;29;20602;-59
2021/08/05 12:58:29;;;;;;;4.28;3.90;;;;;;;23.49;47.88;100871.94;5978641;29;20330;-58
2021/08/05 13:02:05;;;;;;;5.50;3.42;;;;;;;23.42;49.73;100862.63;5979457;29;20244;-59
2021/08/05 13:05:26;;;;;;;4.32;4.03;;;;;;;24.00;48.64;100852.78;5977738;29;20330;-60
2021/08/05 13:08:50;;;;;;;4.70;4.30;;;;;;;24.26;48.14;100848.44;5970332;29;20240;-60
2021/08/05 13:12:21;;;;;;;4.70;4.30;;;;;;;24.22;49.73;100846.94;5974267;29;20744;-60
2021/08/05 13:15:44;;;;;;;5.15;4.00;;;;;;;24.42;48.15;100848.25;5977477;29;20273;-60
2021/08/05 13:19:12;;;;;;;8.27;7.68;;;;;;;24.48;49.52;100853.16;5978885;29;20243;-59
2021/08/05 13:22:35;;;;;;;17.95;16.48;;;;;;;24.71;49.38;100849.00;5972235;29;20231;-59
2021/08/05 13:25:56;;;;;;;8.07;7.35;;;;;;;25.05;50.13;100842.22;5975020;29;20240;-59
2021/08/05 13:29:46;;;;;;;5.18;4.78;;;;;;;25.39;49.04;100847.00;5979481;29;20320;-60
2021/08/05 13:33:18;;;;;;;6.43;5.75;;;;;;;24.81;47.69;100843.88;5978966;29;20240;-58
2021/08/05 13:36:40;;;;;;;9.32;8.63;;;;;;;25.09;46.59;100840.19;5984129;29;20235;-59
2021/08/05 13:40:04;;;;;;;7.07;6.57;;;;;;;25.20;46.71;100847.41;5976503;29;20506;-59
2021/08/05 13:43:25;;;;;;;4.90;4.47;;;;;;;24.96;48.86;100845.50;5981701;29;20244;-59
2021/08/05 13:46:46;;;;;;;3.72;3.40;;;;;;;24.93;48.75;100846.56;5983782;29;20991;-58
2021/08/05 13:50:14;;;;;;;3.60;3.13;;;;;;;24.75;46.55;100847.81;5986182;29;20239;-59
2021/08/05 13:53:37;;;;;;;5.63;5.13;;;;;;;24.62;47.67;100860.25;5984451;29;20244;-60
2021/08/05 13:56:59;;;;;;;3.63;3.10;;;;;;;24.29;47.39;100850.88;5980132;29;20235;-60
2021/08/05 14:00:20;;;;;;;8.27;6.28;;;;;;;24.22;47.68;100846.94;5983648;29;20232;-59
2021/08/05 14:03:41;;;;;;;6.07;5.30;;;;;;;24.15;47.04;100847.31;5983562;29;20252;-60
2021/08/05 14:07:02;;;;;;;3.83;3.53;;;;;;;24.34;46.29;100840.78;5980457;29;20236;-59
2021/08/05 14:10:24;;;;;;;4.03;3.58;;;;;;;24.53;47.22;100833.31;5988257;29;20243;-58
2021/08/05 14:13:45;;;;;;;4.05;3.60;;;;;;;24.90;46.35;100828.13;5982463;29;20244;-61
2021/08/05 14:17:06;;;;;;;5.05;4.55;;;;;;;26.82;43.03;100826.66;5988429;29;20239;-59
2021/08/05 14:20:27;;;;;;;3.42;3.13;;;;;;;28.37;40.48;100816.03;5985905;29;20330;-59
2021/08/05 14:23:47;;;;;;;3.95;2.88;;;;;;;27.32;43.04;100820.16;5973574;29;20240;-59
2021/08/05 14:27:10;;;;;;;3.53;3.20;;;;;;;26.57;44.26;100818.81;5987262;29;20329;-59
2021/08/05 14:30:31;;;;;;;3.60;3.05;;;;;;;26.25;45.70;100806.06;5984703;29;20231;-60
2021/08/05 14:33:51;;;;;;;4.00;3.13;;;;;;;26.62;45.17;100804.16;5989546;29;20674;-59
2021/08/05 14:37:12;;;;;;;3.92;2.60;;;;;;;27.49;41.54;100784.88;5983374;29;20517;-60
2021/08/05 14:40:33;;;;;;;3.17;2.88;;;;;;;27.44;41.53;100776.41;5980579;29;20343;-60
2021/08/05 14:43:56;;;;;;;3.13;2.67;;;;;;;27.54;40.86;100782.69;5983508;29;20248;-59
2021/08/05 14:47:17;;;;;;;3.10;2.90;;;;;;;28.32;39.75;100791.44;5970586;29;20251;-61
2021/08/05 14:50:38;;;;;;;2.00;1.90;;;;;;;28.74;38.96;100794.16;5987610;29;20701;-60
2021/08/05 14:53:59;;;;;;;4.07;3.75;;;;;;;29.19;37.78;100793.81;5976199;29;20260;-60
2021/08/05 14:57:20;;;;;;;4.30;2.45;;;;;;;29.32;36.86;100787.41;5983317;29;20235;-60
2021/08/05 15:00:43;;;;;;;4.22;3.35;;;;;;;28.20;40.08;100787.97;5982413;29;20255;-60
2021/08/05 15:04:05;;;;;;;2.80;2.60;;;;;;;27.74;40.25;100785.56;5976565;29;20236;-59
2021/08/05 15:07:26;;;;;;;3.08;2.72;;;;;;;27.89;39.75;100782.50;5982434;29;20628;-59
2021/08/05 15:10:46;;;;;;;2.97;2.65;;;;;;;28.42;39.15;100776.31;5981219;29;20239;-59
2021/08/05 15:14:07;;;;;;;3.15;2.95;;;;;;;28.01;40.01;100771.75;5982705;29;20248;-58
2021/08/05 15:17:29;;;;;;;3.10;2.88;;;;;;;27.44;41.75;100765.72;5967392;29;20243;-59
2021/08/05 15:20:51;;;;;;;3.03;2.72;;;;;;;27.04;41.77;100771.53;5979311;29;20244;-60
2021/08/05 15:24:12;;;;;;;2.90;2.70;;;;;;;27.40;40.94;100767.78;5983960;29;20242;-60
2021/08/05 15:27:33;;;;;;;2.72;2.53;;;;;;;27.76;40.03;100757.72;5982218;29;20244;-60
2021/08/05 15:30:54;;;;;;;3.28;2.63;;;;;;;27.44;41.14;100763.03;5981602;29;20678;-60
2021/08/05 15:34:17;;;;;;;2.72;2.45;;;;;;;26.85;41.57;100756.97;5982488;29;20251;-60
2021/08/05 15:37:38;;;;;;;3.97;2.88;;;;;;;26.60;41.71;100751.81;5980966;29;20255;-59
2021/08/05 15:40:59;;;;;;;2.42;2.22;;;;;;;26.65;41.21;100749.66;5974240;29;20231;-59
2021/08/05 15:44:20;;;;;;;2.38;2.17;;;;;;;26.56;40.45;100745.00;5984984;29;20244;-59